首页
METAR-TAF:

METAR-TAF

机场 :

Riverton Regional Airport

Riverton, 怀俄明州, 美国

纬度: 43-03-43N, 经度: 108-26-47W, 海拔: 1684米

当前天气观测

该预报发布于48分钟前的10:53 UTC
风速6节,风向北转东北
温度 4°C
湿度 81%
气压 1022 hPa
能見度: 16.1公里
天空无云

METAR: KRIW 191053Z AUTO 03006KT 10SM CLR 04/01 A3017 RMK AO2 SLP189 T00390006

时间: 05:41 (11:41 UTC)

预报

该预报发布于6小时和21分钟前的05:20 UTC
预报有效从19日的 06点(UTC)到 20日的 06点(UTC)
风速9节,风向北转东北
能見度: 10公里
散云层高于10000英尺
从 19日的 1000点(UTC)
风速5节,风向多变
能見度: 10公里
散云层高于15000英尺
从 19日的 2000点(UTC)
风速8节,风向东转东北
能見度: 10公里
散云层高于15000英尺

TAF: KRIW 190520Z 1906/2006 02009KT P6SM SCT100 FM191000 VRB05KT P6SM SCT150 FM192000 07008KT P6SM SCT150

超过4000个机场的气象观测和天气预报(METAR&TAF报告)。

可查询的气象台以黄色和红色小点在地图上表示。

将鼠标移到小点上方,可查看气象台名称。

然后点击查看天气观测和预报。

如需切换地图:点击带黑十字的绿色按钮放大地图;点击带横线的绿色按钮缩小地图;或者点击绿色箭头查看邻近地区的地图。


METAR-TAF: